sensor_id;sensor_type;location;lat;lon;timestamp;P1;durP1;ratioP1;P2;durP2;ratioP2
3121;SDS011;1571;52.524;14.104;2024-03-07T00:01:45;12.03;;;11.13;;
3121;SDS011;1571;52.524;14.104;2024-03-07T00:04:14;11.23;;;10.23;;
3121;SDS011;1571;52.524;14.104;2024-03-07T00:06:42;11.07;;;10.17;;
3121;SDS011;1571;52.524;14.104;2024-03-07T00:09:10;16.10;;;14.70;;
3121;SDS011;1571;52.524;14.104;2024-03-07T00:11:38;11.43;;;10.57;;
3121;SDS011;1571;52.524;14.104;2024-03-07T00:14:09;13.27;;;11.80;;
3121;SDS011;1571;52.524;14.104;2024-03-07T00:16:37;13.00;;;11.60;;
3121;SDS011;1571;52.524;14.104;2024-03-07T00:19:07;17.90;;;16.10;;
3121;SDS011;1571;52.524;14.104;2024-03-07T00:21:35;30.13;;;11.50;;
3121;SDS011;1571;52.524;14.104;2024-03-07T00:24:04;13.03;;;12.07;;
3121;SDS011;1571;52.524;14.104;2024-03-07T00:26:35;12.00;;;11.13;;
3121;SDS011;1571;52.524;14.104;2024-03-07T00:29:03;19.97;;;18.10;;
3121;SDS011;1571;52.524;14.104;2024-03-07T00:31:34;18.23;;;11.97;;
3121;SDS011;1571;52.524;14.104;2024-03-07T00:34:03;7.40;;;7.00;;
3121;SDS011;1571;52.524;14.104;2024-03-07T00:36:42;8.17;;;7.53;;
3121;SDS011;1571;52.524;14.104;2024-03-07T00:39:10;9.87;;;8.93;;
3121;SDS011;1571;52.524;14.104;2024-03-07T00:41:39;11.80;;;10.60;;
3121;SDS011;1571;52.524;14.104;2024-03-07T00:44:08;11.30;;;10.47;;
3121;SDS011;1571;52.524;14.104;2024-03-07T00:46:38;18.83;;;9.07;;
3121;SDS011;1571;52.524;14.104;2024-03-07T00:49:06;21.23;;;13.07;;
3121;SDS011;1571;52.524;14.104;2024-03-07T00:51:34;12.93;;;10.10;;
3121;SDS011;1571;52.524;14.104;2024-03-07T00:54:06;12.87;;;9.43;;
3121;SDS011;1571;52.524;14.104;2024-03-07T00:56:34;13.37;;;10.43;;
3121;SDS011;1571;52.524;14.104;2024-03-07T00:59:03;20.07;;;12.07;;
3121;SDS011;1571;52.524;14.104;2024-03-07T01:01:32;14.53;;;13.33;;
3121;SDS011;1571;52.524;14.104;2024-03-07T01:04:06;18.23;;;13.50;;
3121;SDS011;1571;52.524;14.104;2024-03-07T01:06:34;10.87;;;9.83;;
3121;SDS011;1571;52.524;14.104;2024-03-07T01:09:04;12.07;;;11.17;;
3121;SDS011;1571;52.524;14.104;2024-03-07T01:11:41;9.57;;;8.87;;
3121;SDS011;1571;52.524;14.104;2024-03-07T01:14:11;18.27;;;12.83;;
3121;SDS011;1571;52.524;14.104;2024-03-07T01:16:40;6.67;;;6.07;;
3121;SDS011;1571;52.524;14.104;2024-03-07T01:19:10;21.37;;;9.20;;
3121;SDS011;1571;52.524;14.104;2024-03-07T01:21:38;13.50;;;12.23;;
3121;SDS011;1571;52.524;14.104;2024-03-07T01:24:07;12.07;;;9.80;;
3121;SDS011;1571;52.524;14.104;2024-03-07T01:26:36;14.80;;;9.90;;
3121;SDS011;1571;52.524;14.104;2024-03-07T01:29:04;10.70;;;9.30;;
3121;SDS011;1571;52.524;14.104;2024-03-07T01:31:34;8.30;;;7.40;;
3121;SDS011;1571;52.524;14.104;2024-03-07T01:34:02;7.50;;;7.03;;
3121;SDS011;1571;52.524;14.104;2024-03-07T01:36:32;10.00;;;9.20;;
3121;SDS011;1571;52.524;14.104;2024-03-07T01:39:00;8.37;;;7.73;;
3121;SDS011;1571;52.524;14.104;2024-03-07T01:41:30;16.33;;;10.47;;
3121;SDS011;1571;52.524;14.104;2024-03-07T01:44:01;10.30;;;9.30;;
3121;SDS011;1571;52.524;14.104;2024-03-07T01:46:29;8.07;;;7.57;;
3121;SDS011;1571;52.524;14.104;2024-03-07T01:48:58;12.30;;;10.27;;
3121;SDS011;1571;52.524;14.104;2024-03-07T01:51:26;4.30;;;4.07;;
3121;SDS011;1571;52.524;14.104;2024-03-07T01:53:56;8.13;;;7.20;;
3121;SDS011;1571;52.524;14.104;2024-03-07T01:56:25;9.30;;;7.70;;
3121;SDS011;1571;52.524;14.104;2024-03-07T01:58:53;10.20;;;7.83;;
3121;SDS011;1571;52.524;14.104;2024-03-07T02:01:22;17.97;;;9.33;;
3121;SDS011;1571;52.524;14.104;2024-03-07T02:03:51;11.30;;;10.40;;
3121;SDS011;1571;52.524;14.104;2024-03-07T02:06:19;10.27;;;9.17;;
3121;SDS011;1571;52.524;14.104;2024-03-07T02:08:47;21.77;;;14.60;;
3121;SDS011;1571;52.524;14.104;2024-03-07T02:11:17;8.93;;;8.07;;
3121;SDS011;1571;52.524;14.104;2024-03-07T02:13:46;25.00;;;9.37;;
3121;SDS011;1571;52.524;14.104;2024-03-07T02:16:15;5.90;;;4.23;;
3121;SDS011;1571;52.524;14.104;2024-03-07T02:18:43;10.67;;;9.63;;
3121;SDS011;1571;52.524;14.104;2024-03-07T02:21:14;8.63;;;8.00;;
3121;SDS011;1571;52.524;14.104;2024-03-07T02:23:42;5.10;;;4.80;;
3121;SDS011;1571;52.524;14.104;2024-03-07T02:26:10;10.83;;;10.30;;
3121;SDS011;1571;52.524;14.104;2024-03-07T02:28:39;5.83;;;5.53;;
3121;SDS011;1571;52.524;14.104;2024-03-07T02:31:07;5.50;;;5.30;;
3121;SDS011;1571;52.524;14.104;2024-03-07T02:33:36;9.10;;;8.20;;
3121;SDS011;1571;52.524;14.104;2024-03-07T02:36:05;8.60;;;8.00;;
3121;SDS011;1571;52.524;14.104;2024-03-07T02:38:35;3.93;;;3.63;;
3121;SDS011;1571;52.524;14.104;2024-03-07T02:41:03;4.10;;;3.93;;
3121;SDS011;1571;52.524;14.104;2024-03-07T02:43:33;3.60;;;3.30;;
3121;SDS011;1571;52.524;14.104;2024-03-07T02:46:04;6.97;;;4.90;;
3121;SDS011;1571;52.524;14.104;2024-03-07T02:48:33;5.70;;;5.37;;
3121;SDS011;1571;52.524;14.104;2024-03-07T02:51:01;7.13;;;6.60;;
3121;SDS011;1571;52.524;14.104;2024-03-07T02:53:32;6.37;;;4.53;;
3121;SDS011;1571;52.524;14.104;2024-03-07T02:56:02;3.40;;;2.90;;
3121;SDS011;1571;52.524;14.104;2024-03-07T02:58:35;4.07;;;2.80;;
3121;SDS011;1571;52.524;14.104;2024-03-07T03:01:03;9.33;;;5.90;;
3121;SDS011;1571;52.524;14.104;2024-03-07T03:03:32;5.40;;;5.07;;
3121;SDS011;1571;52.524;14.104;2024-03-07T03:06:00;6.40;;;5.90;;
3121;SDS011;1571;52.524;14.104;2024-03-07T03:08:29;9.33;;;8.57;;
3121;SDS011;1571;52.524;14.104;2024-03-07T03:10:57;7.30;;;5.20;;
3121;SDS011;1571;52.524;14.104;2024-03-07T03:13:27;3.23;;;3.03;;
3121;SDS011;1571;52.524;14.104;2024-03-07T03:15:55;6.93;;;6.53;;
3121;SDS011;1571;52.524;14.104;2024-03-07T03:18:24;4.73;;;4.53;;
3121;SDS011;1571;52.524;14.104;2024-03-07T03:20:53;4.77;;;4.47;;
3121;SDS011;1571;52.524;14.104;2024-03-07T03:23:21;2.53;;;2.43;;
3121;SDS011;1571;52.524;14.104;2024-03-07T03:25:49;2.63;;;2.53;;
3121;SDS011;1571;52.524;14.104;2024-03-07T03:28:18;6.87;;;6.27;;
3121;SDS011;1571;52.524;14.104;2024-03-07T03:30:49;4.07;;;3.90;;
3121;SDS011;1571;52.524;14.104;2024-03-07T03:33:18;5.83;;;5.43;;
3121;SDS011;1571;52.524;14.104;2024-03-07T03:35:50;4.77;;;4.40;;
3121;SDS011;1571;52.524;14.104;2024-03-07T03:38:18;3.87;;;3.70;;
3121;SDS011;1571;52.524;14.104;2024-03-07T03:40:47;5.57;;;5.10;;
3121;SDS011;1571;52.524;14.104;2024-03-07T03:43:15;6.53;;;6.13;;
3121;SDS011;1571;52.524;14.104;2024-03-07T03:45:43;6.03;;;5.43;;
3121;SDS011;1571;52.524;14.104;2024-03-07T03:48:13;2.43;;;2.33;;
3121;SDS011;1571;52.524;14.104;2024-03-07T03:50:42;3.97;;;3.77;;
3121;SDS011;1571;52.524;14.104;2024-03-07T03:53:10;3.00;;;2.67;;
3121;SDS011;1571;52.524;14.104;2024-03-07T03:55:38;5.13;;;4.73;;
3121;SDS011;1571;52.524;14.104;2024-03-07T03:58:07;5.40;;;4.70;;
3121;SDS011;1571;52.524;14.104;2024-03-07T04:00:36;3.00;;;2.83;;
3121;SDS011;1571;52.524;14.104;2024-03-07T04:03:06;1.93;;;1.93;;
3121;SDS011;1571;52.524;14.104;2024-03-07T04:05:36;3.27;;;3.07;;
3121;SDS011;1571;52.524;14.104;2024-03-07T04:08:04;2.90;;;2.73;;
3121;SDS011;1571;52.524;14.104;2024-03-07T04:10:34;2.47;;;2.37;;
3121;SDS011;1571;52.524;14.104;2024-03-07T04:13:02;2.30;;;2.20;;
3121;SDS011;1571;52.524;14.104;2024-03-07T04:15:31;3.53;;;3.43;;
3121;SDS011;1571;52.524;14.104;2024-03-07T04:18:03;5.60;;;5.20;;
3121;SDS011;1571;52.524;14.104;2024-03-07T04:20:32;6.43;;;3.83;;
3121;SDS011;1571;52.524;14.104;2024-03-07T04:23:02;2.03;;;1.97;;
3121;SDS011;1571;52.524;14.104;2024-03-07T04:25:30;41.70;;;4.00;;
3121;SDS011;1571;52.524;14.104;2024-03-07T04:27:59;2.73;;;2.63;;
3121;SDS011;1571;52.524;14.104;2024-03-07T04:30:29;3.03;;;2.87;;
3121;SDS011;1571;52.524;14.104;2024-03-07T04:32:58;3.17;;;3.07;;
3121;SDS011;1571;52.524;14.104;2024-03-07T04:35:26;5.63;;;4.57;;
3121;SDS011;1571;52.524;14.104;2024-03-07T04:37:54;5.50;;;5.20;;
3121;SDS011;1571;52.524;14.104;2024-03-07T04:40:24;2.53;;;2.43;;
3121;SDS011;1571;52.524;14.104;2024-03-07T04:42:52;2.53;;;2.27;;
3121;SDS011;1571;52.524;14.104;2024-03-07T04:45:20;4.10;;;3.70;;
3121;SDS011;1571;52.524;14.104;2024-03-07T04:47:49;6.13;;;4.30;;
3121;SDS011;1571;52.524;14.104;2024-03-07T04:50:17;5.27;;;3.03;;
3121;SDS011;1571;52.524;14.104;2024-03-07T04:52:47;4.60;;;4.20;;
3121;SDS011;1571;52.524;14.104;2024-03-07T04:55:16;1.67;;;1.67;;
3121;SDS011;1571;52.524;14.104;2024-03-07T04:57:47;4.20;;;4.00;;
3121;SDS011;1571;52.524;14.104;2024-03-07T05:00:15;5.37;;;5.13;;
3121;SDS011;1571;52.524;14.104;2024-03-07T05:02:47;3.03;;;2.10;;
3121;SDS011;1571;52.524;14.104;2024-03-07T05:05:18;1.90;;;1.80;;
3121;SDS011;1571;52.524;14.104;2024-03-07T05:07:50;4.13;;;3.70;;
3121;SDS011;1571;52.524;14.104;2024-03-07T05:10:19;3.83;;;2.37;;
3121;SDS011;1571;52.524;14.104;2024-03-07T05:12:48;5.73;;;4.27;;
3121;SDS011;1571;52.524;14.104;2024-03-07T05:15:17;2.20;;;2.10;;
3121;SDS011;1571;52.524;14.104;2024-03-07T05:17:46;4.10;;;3.33;;
3121;SDS011;1571;52.524;14.104;2024-03-07T05:20:14;1.90;;;1.80;;
3121;SDS011;1571;52.524;14.104;2024-03-07T05:22:43;1.30;;;1.30;;
3121;SDS011;1571;52.524;14.104;2024-03-07T05:25:18;2.00;;;1.93;;
3121;SDS011;1571;52.524;14.104;2024-03-07T05:27:46;2.50;;;2.30;;
3121;SDS011;1571;52.524;14.104;2024-03-07T05:30:18;4.53;;;4.10;;
3121;SDS011;1571;52.524;14.104;2024-03-07T05:32:48;2.37;;;1.93;;
3121;SDS011;1571;52.524;14.104;2024-03-07T05:35:17;4.00;;;3.80;;
3121;SDS011;1571;52.524;14.104;2024-03-07T05:37:48;1.90;;;1.80;;
3121;SDS011;1571;52.524;14.104;2024-03-07T05:40:18;0.93;;;0.93;;
3121;SDS011;1571;52.524;14.104;2024-03-07T05:42:47;3.07;;;2.93;;
3121;SDS011;1571;52.524;14.104;2024-03-07T05:45:15;2.60;;;2.47;;
3121;SDS011;1571;52.524;14.104;2024-03-07T05:47:46;1.13;;;1.13;;
3121;SDS011;1571;52.524;14.104;2024-03-07T05:50:16;1.83;;;1.73;;
3121;SDS011;1571;52.524;14.104;2024-03-07T05:52:45;3.63;;;3.27;;
3121;SDS011;1571;52.524;14.104;2024-03-07T05:55:15;4.83;;;4.53;;
3121;SDS011;1571;52.524;14.104;2024-03-07T05:57:46;1.40;;;1.40;;
3121;SDS011;1571;52.524;14.104;2024-03-07T06:00:15;1.30;;;1.30;;
3121;SDS011;1571;52.524;14.104;2024-03-07T06:02:56;3.37;;;3.17;;
3121;SDS011;1571;52.524;14.104;2024-03-07T06:05:25;1.43;;;1.43;;
3121;SDS011;1571;52.524;14.104;2024-03-07T06:07:54;2.40;;;2.30;;
3121;SDS011;1571;52.524;14.104;2024-03-07T06:10:23;5.93;;;5.50;;
3121;SDS011;1571;52.524;14.104;2024-03-07T06:12:52;1.93;;;1.83;;
3121;SDS011;1571;52.524;14.104;2024-03-07T06:15:23;1.93;;;1.87;;
3121;SDS011;1571;52.524;14.104;2024-03-07T06:17:52;4.23;;;4.00;;
3121;SDS011;1571;52.524;14.104;2024-03-07T06:20:22;2.50;;;2.33;;
3121;SDS011;1571;52.524;14.104;2024-03-07T06:22:51;2.20;;;2.13;;
3121;SDS011;1571;52.524;14.104;2024-03-07T06:25:20;0.90;;;0.90;;
3121;SDS011;1571;52.524;14.104;2024-03-07T06:28:00;3.77;;;3.27;;
3121;SDS011;1571;52.524;14.104;2024-03-07T06:30:36;2.13;;;2.03;;
3121;SDS011;1571;52.524;14.104;2024-03-07T06:33:04;1.00;;;1.00;;
3121;SDS011;1571;52.524;14.104;2024-03-07T06:35:34;4.33;;;2.93;;
3121;SDS011;1571;52.524;14.104;2024-03-07T06:38:04;2.90;;;2.70;;
3121;SDS011;1571;52.524;14.104;2024-03-07T06:40:32;2.83;;;2.63;;
3121;SDS011;1571;52.524;14.104;2024-03-07T06:43:00;2.53;;;2.03;;
3121;SDS011;1571;52.524;14.104;2024-03-07T06:45:30;1.07;;;1.00;;
3121;SDS011;1571;52.524;14.104;2024-03-07T06:47:59;2.20;;;2.10;;
3121;SDS011;1571;52.524;14.104;2024-03-07T06:50:27;16.67;;;4.20;;
3121;SDS011;1571;52.524;14.104;2024-03-07T06:53:05;2.27;;;2.27;;
3121;SDS011;1571;52.524;14.104;2024-03-07T06:55:35;4.63;;;4.30;;
3121;SDS011;1571;52.524;14.104;2024-03-07T06:58:04;4.57;;;4.20;;
3121;SDS011;1571;52.524;14.104;2024-03-07T07:00:33;3.40;;;3.23;;
3121;SDS011;1571;52.524;14.104;2024-03-07T07:03:04;2.07;;;1.97;;
3121;SDS011;1571;52.524;14.104;2024-03-07T07:05:34;2.10;;;2.00;;
3121;SDS011;1571;52.524;14.104;2024-03-07T07:08:03;3.17;;;2.97;;
3121;SDS011;1571;52.524;14.104;2024-03-07T07:10:35;2.27;;;2.17;;
3121;SDS011;1571;52.524;14.104;2024-03-07T07:13:04;1.93;;;1.87;;
3121;SDS011;1571;52.524;14.104;2024-03-07T07:15:32;5.53;;;5.10;;
3121;SDS011;1571;52.524;14.104;2024-03-07T07:18:01;2.87;;;1.17;;
3121;SDS011;1571;52.524;14.104;2024-03-07T07:20:30;1.27;;;1.27;;
3121;SDS011;1571;52.524;14.104;2024-03-07T07:23:01;1.27;;;1.27;;
3121;SDS011;1571;52.524;14.104;2024-03-07T07:25:31;2.40;;;2.30;;
3121;SDS011;1571;52.524;14.104;2024-03-07T07:28:01;3.53;;;3.33;;
3121;SDS011;1571;52.524;14.104;2024-03-07T07:30:32;2.07;;;2.00;;
3121;SDS011;1571;52.524;14.104;2024-03-07T07:33:00;2.00;;;1.90;;
3121;SDS011;1571;52.524;14.104;2024-03-07T07:35:29;2.13;;;2.13;;
3121;SDS011;1571;52.524;14.104;2024-03-07T07:37:58;3.80;;;3.60;;
3121;SDS011;1571;52.524;14.104;2024-03-07T07:40:26;2.13;;;2.03;;
3121;SDS011;1571;52.524;14.104;2024-03-07T07:42:55;7.80;;;3.40;;
3121;SDS011;1571;52.524;14.104;2024-03-07T07:45:25;2.63;;;2.50;;
3121;SDS011;1571;52.524;14.104;2024-03-07T07:47:53;4.33;;;1.90;;
3121;SDS011;1571;52.524;14.104;2024-03-07T07:50:23;2.27;;;2.17;;
3121;SDS011;1571;52.524;14.104;2024-03-07T07:52:52;6.87;;;4.23;;
3121;SDS011;1571;52.524;14.104;2024-03-07T07:55:23;2.90;;;2.70;;
3121;SDS011;1571;52.524;14.104;2024-03-07T07:57:52;4.13;;;3.30;;
3121;SDS011;1571;52.524;14.104;2024-03-07T08:00:22;3.50;;;3.30;;
3121;SDS011;1571;52.524;14.104;2024-03-07T08:02:53;8.17;;;4.87;;
3121;SDS011;1571;52.524;14.104;2024-03-07T08:05:22;5.43;;;5.03;;
3121;SDS011;1571;52.524;14.104;2024-03-07T08:07:52;3.73;;;3.43;;
3121;SDS011;1571;52.524;14.104;2024-03-07T08:10:23;2.17;;;1.97;;
3121;SDS011;1571;52.524;14.104;2024-03-07T08:12:53;2.67;;;2.57;;
3121;SDS011;1571;52.524;14.104;2024-03-07T08:15:21;2.50;;;2.27;;
3121;SDS011;1571;52.524;14.104;2024-03-07T08:17:50;2.83;;;2.67;;
3121;SDS011;1571;52.524;14.104;2024-03-07T08:20:20;4.47;;;3.73;;
3121;SDS011;1571;52.524;14.104;2024-03-07T08:22:51;6.20;;;4.10;;
3121;SDS011;1571;52.524;14.104;2024-03-07T08:25:20;3.27;;;3.03;;
3121;SDS011;1571;52.524;14.104;2024-03-07T08:27:51;1.27;;;1.27;;
3121;SDS011;1571;52.524;14.104;2024-03-07T08:30:20;1.67;;;1.57;;
3121;SDS011;1571;52.524;14.104;2024-03-07T08:32:50;5.67;;;5.27;;
3121;SDS011;1571;52.524;14.104;2024-03-07T08:35:21;5.50;;;3.37;;
3121;SDS011;1571;52.524;14.104;2024-03-07T08:37:50;3.00;;;2.90;;
3121;SDS011;1571;52.524;14.104;2024-03-07T08:40:22;1.97;;;1.87;;
3121;SDS011;1571;52.524;14.104;2024-03-07T08:42:55;7.33;;;5.93;;
3121;SDS011;1571;52.524;14.104;2024-03-07T08:45:24;8.97;;;7.50;;
3121;SDS011;1571;52.524;14.104;2024-03-07T08:47:54;6.10;;;5.70;;
3121;SDS011;1571;52.524;14.104;2024-03-07T08:50:27;3.80;;;3.70;;
3121;SDS011;1571;52.524;14.104;2024-03-07T08:52:56;4.67;;;4.07;;
3121;SDS011;1571;52.524;14.104;2024-03-07T08:55:25;7.13;;;5.93;;
3121;SDS011;1571;52.524;14.104;2024-03-07T08:57:53;8.10;;;5.80;;
3121;SDS011;1571;52.524;14.104;2024-03-07T09:00:23;4.57;;;4.17;;
3121;SDS011;1571;52.524;14.104;2024-03-07T09:02:54;4.40;;;4.07;;
3121;SDS011;1571;52.524;14.104;2024-03-07T09:05:28;7.47;;;6.87;;
3121;SDS011;1571;52.524;14.104;2024-03-07T09:07:57;4.27;;;3.90;;
3121;SDS011;1571;52.524;14.104;2024-03-07T09:10:26;4.43;;;4.23;;
3121;SDS011;1571;52.524;14.104;2024-03-07T09:12:57;4.67;;;4.30;;
3121;SDS011;1571;52.524;14.104;2024-03-07T09:15:26;8.00;;;6.70;;
3121;SDS011;1571;52.524;14.104;2024-03-07T09:17:55;3.93;;;3.57;;
3121;SDS011;1571;52.524;14.104;2024-03-07T09:20:25;5.37;;;4.90;;
3121;SDS011;1571;52.524;14.104;2024-03-07T09:22:55;6.13;;;5.63;;
3121;SDS011;1571;52.524;14.104;2024-03-07T09:25:23;3.87;;;3.67;;
3121;SDS011;1571;52.524;14.104;2024-03-07T09:27:53;7.17;;;6.67;;
3121;SDS011;1571;52.524;14.104;2024-03-07T09:30:23;5.23;;;4.77;;
3121;SDS011;1571;52.524;14.104;2024-03-07T09:32:54;8.80;;;4.37;;
3121;SDS011;1571;52.524;14.104;2024-03-07T09:35:23;5.90;;;5.50;;
3121;SDS011;1571;52.524;14.104;2024-03-07T09:37:52;4.40;;;4.00;;
3121;SDS011;1571;52.524;14.104;2024-03-07T09:40:22;4.53;;;4.20;;
3121;SDS011;1571;52.524;14.104;2024-03-07T09:42:54;5.13;;;4.03;;
3121;SDS011;1571;52.524;14.104;2024-03-07T09:45:28;7.33;;;3.90;;
3121;SDS011;1571;52.524;14.104;2024-03-07T09:47:59;4.77;;;4.43;;
3121;SDS011;1571;52.524;14.104;2024-03-07T09:50:29;3.27;;;2.80;;
3121;SDS011;1571;52.524;14.104;2024-03-07T09:52:58;3.00;;;2.80;;
3121;SDS011;1571;52.524;14.104;2024-03-07T09:55:30;4.83;;;4.33;;
3121;SDS011;1571;52.524;14.104;2024-03-07T09:58:00;5.43;;;5.00;;
3121;SDS011;1571;52.524;14.104;2024-03-07T10:00:28;2.53;;;2.43;;
3121;SDS011;1571;52.524;14.104;2024-03-07T10:02:58;4.10;;;3.80;;
3121;SDS011;1571;52.524;14.104;2024-03-07T10:05:30;4.10;;;3.80;;
3121;SDS011;1571;52.524;14.104;2024-03-07T10:07:59;2.70;;;2.60;;
3121;SDS011;1571;52.524;14.104;2024-03-07T10:10:30;3.03;;;2.80;;
3121;SDS011;1571;52.524;14.104;2024-03-07T10:12:59;3.83;;;3.57;;
3121;SDS011;1571;52.524;14.104;2024-03-07T10:15:28;2.83;;;2.73;;
3121;SDS011;1571;52.524;14.104;2024-03-07T10:17:57;3.03;;;2.83;;
3121;SDS011;1571;52.524;14.104;2024-03-07T10:20:26;2.70;;;2.60;;
3121;SDS011;1571;52.524;14.104;2024-03-07T10:22:55;3.03;;;2.83;;
3121;SDS011;1571;52.524;14.104;2024-03-07T10:25:23;5.00;;;4.60;;
3121;SDS011;1571;52.524;14.104;2024-03-07T10:27:56;3.67;;;3.47;;
3121;SDS011;1571;52.524;14.104;2024-03-07T10:30:26;4.07;;;3.40;;
3121;SDS011;1571;52.524;14.104;2024-03-07T10:32:56;9.03;;;3.70;;
3121;SDS011;1571;52.524;14.104;2024-03-07T10:35:28;4.23;;;3.93;;
3121;SDS011;1571;52.524;14.104;2024-03-07T10:37:58;6.77;;;4.63;;
3121;SDS011;1571;52.524;14.104;2024-03-07T10:40:28;4.83;;;4.43;;
3121;SDS011;1571;52.524;14.104;2024-03-07T10:42:59;4.40;;;4.10;;
3121;SDS011;1571;52.524;14.104;2024-03-07T10:45:30;4.83;;;4.33;;
3121;SDS011;1571;52.524;14.104;2024-03-07T10:48:02;4.23;;;4.03;;
3121;SDS011;1571;52.524;14.104;2024-03-07T10:50:38;5.27;;;2.03;;
3121;SDS011;1571;52.524;14.104;2024-03-07T10:53:19;2.00;;;2.00;;
3121;SDS011;1571;52.524;14.104;2024-03-07T10:55:55;3.17;;;2.97;;
3121;SDS011;1571;52.524;14.104;2024-03-07T10:58:45;4.70;;;2.27;;
3121;SDS011;1571;52.524;14.104;2024-03-07T11:01:25;4.00;;;2.50;;
3121;SDS011;1571;52.524;14.104;2024-03-07T11:03:58;12.00;;;2.40;;
3121;SDS011;1571;52.524;14.104;2024-03-07T11:06:28;7.23;;;3.60;;
3121;SDS011;1571;52.524;14.104;2024-03-07T11:08:56;2.03;;;1.87;;
3121;SDS011;1571;52.524;14.104;2024-03-07T11:11:26;1.60;;;1.50;;
3121;SDS011;1571;52.524;14.104;2024-03-07T11:13:57;3.07;;;2.97;;
3121;SDS011;1571;52.524;14.104;2024-03-07T11:16:26;2.87;;;2.77;;
3121;SDS011;1571;52.524;14.104;2024-03-07T11:21:48;3.37;;;3.10;;
3121;SDS011;1571;52.524;14.104;2024-03-07T11:24:22;4.57;;;3.50;;
3121;SDS011;1571;52.524;14.104;2024-03-07T11:26:52;4.10;;;2.50;;
3121;SDS011;1571;52.524;14.104;2024-03-07T11:32:20;4.10;;;2.90;;
3121;SDS011;1571;52.524;14.104;2024-03-07T11:34:50;3.83;;;2.67;;
3121;SDS011;1571;52.524;14.104;2024-03-07T11:37:36;4.77;;;4.10;;
3121;SDS011;1571;52.524;14.104;2024-03-07T11:40:08;2.83;;;2.70;;
3121;SDS011;1571;52.524;14.104;2024-03-07T11:42:48;3.03;;;2.90;;
3121;SDS011;1571;52.524;14.104;2024-03-07T11:45:18;3.47;;;2.70;;
3121;SDS011;1571;52.524;14.104;2024-03-07T11:47:53;5.40;;;3.87;;
3121;SDS011;1571;52.524;14.104;2024-03-07T11:50:27;1.57;;;1.47;;
3121;SDS011;1571;52.524;14.104;2024-03-07T11:52:56;2.07;;;1.87;;
3121;SDS011;1571;52.524;14.104;2024-03-07T11:55:24;2.83;;;2.70;;
3121;SDS011;1571;52.524;14.104;2024-03-07T11:57:55;4.80;;;3.00;;
3121;SDS011;1571;52.524;14.104;2024-03-07T12:00:25;3.27;;;3.03;;
3121;SDS011;1571;52.524;14.104;2024-03-07T12:03:01;1.63;;;1.53;;
3121;SDS011;1571;52.524;14.104;2024-03-07T12:05:33;5.40;;;5.00;;
3121;SDS011;1571;52.524;14.104;2024-03-07T12:08:01;3.53;;;2.50;;
3121;SDS011;1571;52.524;14.104;2024-03-07T12:10:32;3.70;;;3.33;;
3121;SDS011;1571;52.524;14.104;2024-03-07T12:13:01;3.37;;;3.23;;
3121;SDS011;1571;52.524;14.104;2024-03-07T12:15:32;3.83;;;3.53;;
3121;SDS011;1571;52.524;14.104;2024-03-07T12:18:02;4.87;;;3.00;;
3121;SDS011;1571;52.524;14.104;2024-03-07T12:20:36;11.43;;;3.87;;
3121;SDS011;1571;52.524;14.104;2024-03-07T12:23:05;3.77;;;3.30;;
3121;SDS011;1571;52.524;14.104;2024-03-07T12:25:35;2.57;;;2.37;;
3121;SDS011;1571;52.524;14.104;2024-03-07T12:28:05;7.13;;;2.87;;
3121;SDS011;1571;52.524;14.104;2024-03-07T12:30:48;5.73;;;5.30;;
3121;SDS011;1571;52.524;14.104;2024-03-07T12:33:18;2.53;;;2.40;;
3121;SDS011;1571;52.524;14.104;2024-03-07T12:35:47;6.17;;;4.23;;
3121;SDS011;1571;52.524;14.104;2024-03-07T12:38:18;3.20;;;2.83;;
3121;SDS011;1571;52.524;14.104;2024-03-07T12:41:01;3.53;;;3.33;;
3121;SDS011;1571;52.524;14.104;2024-03-07T12:43:32;2.40;;;2.30;;
3121;SDS011;1571;52.524;14.104;2024-03-07T12:46:04;3.50;;;3.20;;
3121;SDS011;1571;52.524;14.104;2024-03-07T12:48:33;1.90;;;1.80;;
3121;SDS011;1571;52.524;14.104;2024-03-07T12:51:05;3.40;;;3.20;;
3121;SDS011;1571;52.524;14.104;2024-03-07T12:53:34;3.00;;;2.90;;
3121;SDS011;1571;52.524;14.104;2024-03-07T12:56:03;2.50;;;2.40;;
3121;SDS011;1571;52.524;14.104;2024-03-07T12:58:31;3.20;;;3.10;;
3121;SDS011;1571;52.524;14.104;2024-03-07T13:01:00;6.83;;;6.10;;
3121;SDS011;1571;52.524;14.104;2024-03-07T13:03:30;5.23;;;4.10;;
3121;SDS011;1571;52.524;14.104;2024-03-07T13:05:59;2.10;;;2.00;;
3121;SDS011;1571;52.524;14.104;2024-03-07T13:08:29;3.87;;;3.27;;
3121;SDS011;1571;52.524;14.104;2024-03-07T13:10:58;4.07;;;3.77;;
3121;SDS011;1571;52.524;14.104;2024-03-07T13:13:28;3.90;;;2.40;;
3121;SDS011;1571;52.524;14.104;2024-03-07T13:15:57;2.27;;;2.10;;
3121;SDS011;1571;52.524;14.104;2024-03-07T13:18:26;1.80;;;1.70;;
3121;SDS011;1571;52.524;14.104;2024-03-07T13:20:56;3.10;;;2.90;;
3121;SDS011;1571;52.524;14.104;2024-03-07T13:23:24;5.57;;;5.17;;
3121;SDS011;1571;52.524;14.104;2024-03-07T13:25:55;5.73;;;5.13;;
3121;SDS011;1571;52.524;14.104;2024-03-07T13:28:23;3.70;;;3.57;;
3121;SDS011;1571;52.524;14.104;2024-03-07T13:30:55;3.13;;;2.60;;
3121;SDS011;1571;52.524;14.104;2024-03-07T13:33:23;2.50;;;2.37;;
3121;SDS011;1571;52.524;14.104;2024-03-07T13:35:53;2.43;;;2.23;;
3121;SDS011;1571;52.524;14.104;2024-03-07T13:38:22;3.67;;;3.40;;
3121;SDS011;1571;52.524;14.104;2024-03-07T13:40:53;4.17;;;3.50;;
3121;SDS011;1571;52.524;14.104;2024-03-07T13:43:21;3.23;;;3.03;;
3121;SDS011;1571;52.524;14.104;2024-03-07T13:45:49;5.30;;;4.70;;
3121;SDS011;1571;52.524;14.104;2024-03-07T13:48:18;4.83;;;3.97;;
3121;SDS011;1571;52.524;14.104;2024-03-07T13:50:47;3.17;;;2.97;;
3121;SDS011;1571;52.524;14.104;2024-03-07T13:53:27;2.60;;;2.40;;
3121;SDS011;1571;52.524;14.104;2024-03-07T13:56:12;8.70;;;3.57;;
3121;SDS011;1571;52.524;14.104;2024-03-07T13:59:00;4.60;;;3.30;;
3121;SDS011;1571;52.524;14.104;2024-03-07T14:01:43;5.83;;;3.70;;
3121;SDS011;1571;52.524;14.104;2024-03-07T14:04:28;3.47;;;3.27;;
3121;SDS011;1571;52.524;14.104;2024-03-07T14:07:35;1.97;;;1.87;;
3121;SDS011;1571;52.524;14.104;2024-03-07T14:13:39;3.80;;;3.03;;
3121;SDS011;1571;52.524;14.104;2024-03-07T14:16:21;1.90;;;1.80;;
3121;SDS011;1571;52.524;14.104;2024-03-07T14:22:20;3.03;;;2.83;;
3121;SDS011;1571;52.524;14.104;2024-03-07T14:25:08;7.53;;;1.90;;
3121;SDS011;1571;52.524;14.104;2024-03-07T14:27:57;5.40;;;2.13;;
3121;SDS011;1571;52.524;14.104;2024-03-07T14:30:41;1.43;;;1.43;;
3121;SDS011;1571;52.524;14.104;2024-03-07T14:33:12;11.50;;;3.80;;
3121;SDS011;1571;52.524;14.104;2024-03-07T14:38:40;2.50;;;2.30;;
3121;SDS011;1571;52.524;14.104;2024-03-07T14:41:12;3.17;;;2.60;;
3121;SDS011;1571;52.524;14.104;2024-03-07T14:43:43;1.97;;;1.87;;
3121;SDS011;1571;52.524;14.104;2024-03-07T14:46:13;3.10;;;2.90;;
3121;SDS011;1571;52.524;14.104;2024-03-07T14:48:43;1.70;;;1.60;;
3121;SDS011;1571;52.524;14.104;2024-03-07T14:51:12;2.30;;;2.20;;
3121;SDS011;1571;52.524;14.104;2024-03-07T14:53:42;1.83;;;1.73;;
3121;SDS011;1571;52.524;14.104;2024-03-07T14:56:11;1.90;;;1.80;;
3121;SDS011;1571;52.524;14.104;2024-03-07T14:58:39;3.53;;;3.33;;
3121;SDS011;1571;52.524;14.104;2024-03-07T15:01:10;1.50;;;1.40;;
3121;SDS011;1571;52.524;14.104;2024-03-07T15:03:39;5.20;;;4.53;;
3121;SDS011;1571;52.524;14.104;2024-03-07T15:06:12;6.30;;;2.10;;
3121;SDS011;1571;52.524;14.104;2024-03-07T15:08:42;3.60;;;3.33;;
3121;SDS011;1571;52.524;14.104;2024-03-07T15:11:12;5.33;;;4.87;;
3121;SDS011;1571;52.524;14.104;2024-03-07T15:13:48;4.33;;;3.87;;
3121;SDS011;1571;52.524;14.104;2024-03-07T15:16:17;2.97;;;2.77;;
3121;SDS011;1571;52.524;14.104;2024-03-07T15:18:59;6.27;;;3.43;;
3121;SDS011;1571;52.524;14.104;2024-03-07T15:21:28;5.13;;;3.20;;
3121;SDS011;1571;52.524;14.104;2024-03-07T15:23:57;2.30;;;2.17;;
3121;SDS011;1571;52.524;14.104;2024-03-07T15:26:26;3.70;;;3.43;;
3121;SDS011;1571;52.524;14.104;2024-03-07T15:28:55;3.63;;;3.10;;
3121;SDS011;1571;52.524;14.104;2024-03-07T15:31:25;4.57;;;3.17;;
3121;SDS011;1571;52.524;14.104;2024-03-07T15:33:53;2.80;;;2.13;;